Time;durP1;ratioP1;P1;durP2;ratioP2;P2;SDS_P1;SDS_P2;PMS_P1;PMS_P2;Temp;Humidity;BMP_temperature;BMP_pressure;BME280_temperature;BME280_humidity;BME280_pressure;Samples;Min_cycle;Max_cycle;Signal;HPM_P1;HPM_P2
2022/05/18 00:00:14;;;;;;;4.47;2.20;;;;;;;22.90;58.78;100615.94;5094361;28;20189;-61
2022/05/18 00:02:39;;;;;;;4.40;1.97;;;;;;;22.90;58.73;100613.06;5093012;28;20415;-61
2022/05/18 00:05:05;;;;;;;3.00;2.00;;;;;;;22.90;58.65;100618.84;5094343;28;20947;-61
2022/05/18 00:07:31;;;;;;;3.40;1.77;;;;;;;22.88;58.81;100622.09;5094251;28;20193;-61
2022/05/18 00:09:56;;;;;;;3.40;1.90;;;;;;;22.89;58.91;100623.78;5094267;28;20305;-61
2022/05/18 00:12:22;;;;;;;3.70;2.07;;;;;;;22.89;59.21;100628.69;5093518;28;20194;-61
2022/05/18 00:14:47;;;;;;;5.40;2.43;;;;;;;22.88;58.82;100627.88;5107288;28;20177;-61
2022/05/18 00:17:13;;;;;;;3.63;2.20;;;;;;;22.88;58.83;100622.09;5116030;27;20237;-61
2022/05/18 00:19:38;;;;;;;3.67;2.23;;;;;;;22.87;58.95;100628.28;5134720;27;20692;-61
2022/05/18 00:22:04;;;;;;;3.10;1.87;;;;;;;22.87;58.64;100623.34;5134588;27;20177;-61
2022/05/18 00:24:30;;;;;;;3.53;2.30;;;;;;;22.86;59.37;100621.69;5133400;27;20189;-61
2022/05/18 00:26:55;;;;;;;4.30;2.20;;;;;;;22.86;58.97;100626.63;5133115;27;20418;-61
2022/05/18 00:29:21;;;;;;;3.40;2.27;;;;;;;22.84;58.76;100624.16;5126158;27;20170;-61
2022/05/18 00:31:46;;;;;;;5.93;2.00;;;;;;;22.85;58.64;100633.59;5112329;28;20189;-61
2022/05/18 00:34:12;;;;;;;4.50;1.97;;;;;;;22.85;58.87;100648.00;5111812;28;20536;-61
2022/05/18 00:36:37;;;;;;;5.03;2.17;;;;;;;22.84;58.99;100655.84;5112424;28;20190;-61
2022/05/18 00:39:03;;;;;;;5.53;2.13;;;;;;;22.83;58.69;100645.53;5113429;28;20178;-61
2022/05/18 00:41:28;;;;;;;3.57;2.00;;;;;;;22.83;58.97;100647.59;5113482;28;20260;-61
2022/05/18 00:43:54;;;;;;;3.70;2.03;;;;;;;22.83;58.99;100651.28;5114184;28;20185;-61
2022/05/18 00:46:20;;;;;;;3.73;2.60;;;;;;;22.82;59.03;100643.88;5104931;28;20269;-61
2022/05/18 00:48:45;;;;;;;4.07;1.93;;;;;;;22.82;59.03;100649.63;5092952;28;20563;-61
2022/05/18 00:51:26;;;;;;;4.07;2.20;;;;;;;22.82;59.07;100641.00;5092809;28;20184;-61
2022/05/18 00:53:54;;;;;;;4.57;2.10;;;;;;;22.81;58.63;100645.09;5093381;28;20573;-61
2022/05/18 00:56:23;;;;;;;5.27;2.30;;;;;;;22.82;58.88;100646.75;5091906;28;20460;-61
2022/05/18 00:58:58;;;;;;;4.73;1.93;;;;;;;22.82;59.49;100649.63;5092824;28;20797;-61
2022/05/18 01:01:23;;;;;;;3.43;1.83;;;;;;;22.82;58.81;100646.75;5075353;28;20451;-61
2022/05/18 01:03:50;;;;;;;2.97;2.00;;;;;;;22.81;58.87;100642.22;5092265;28;20440;-61
2022/05/18 01:06:22;;;;;;;5.53;2.23;;;;;;;22.81;59.03;100642.22;5092885;28;20244;-61
2022/05/18 01:08:54;;;;;;;3.53;2.10;;;;;;;22.80;58.56;100637.72;5111425;28;20395;-61
2022/05/18 01:11:20;;;;;;;4.97;2.00;;;;;;;22.81;58.91;100647.16;5095597;28;20723;-61
2022/05/18 01:13:46;;;;;;;3.50;2.23;;;;;;;22.80;58.95;100637.72;5113292;28;20755;-61
2022/05/18 01:16:12;;;;;;;4.60;2.50;;;;;;;22.80;59.06;100636.88;5104821;27;20210;-61
2022/05/18 01:18:38;;;;;;;3.40;2.00;;;;;;;22.79;58.55;100638.94;5132101;27;21062;-61
2022/05/18 01:21:03;;;;;;;5.17;2.03;;;;;;;22.79;58.48;100635.22;5132235;27;20185;-61
2022/05/18 01:23:50;;;;;;;4.10;1.93;;;;;;;22.79;58.59;100641.81;5133492;27;20177;-61
2022/05/18 01:26:40;;;;;;;4.30;2.30;;;;;;;22.78;59.12;100657.41;5132463;27;20160;-61
2022/05/18 01:29:06;;;;;;;4.03;2.77;;;;;;;22.79;59.13;100652.50;5132532;27;20430;-61
2022/05/18 01:31:41;;;;;;;4.03;2.13;;;;;;;22.79;59.11;100658.25;5112433;27;20791;-61
2022/05/18 01:34:07;;;;;;;4.03;2.13;;;;;;;22.78;58.68;100663.19;5092973;28;20182;-61
2022/05/18 01:36:32;;;;;;;3.23;1.80;;;;;;;22.78;58.95;100654.53;5091780;28;20459;-61
2022/05/18 01:38:58;;;;;;;3.67;1.80;;;;;;;22.77;59.03;100657.84;5092312;28;20197;-61
2022/05/18 01:41:23;;;;;;;3.07;1.87;;;;;;;22.78;58.70;100663.19;5092125;28;20231;-61
2022/05/18 01:43:59;;;;;;;5.03;2.43;;;;;;;22.77;58.87;100658.66;5074480;28;20185;-61
2022/05/18 01:46:24;;;;;;;3.50;2.17;;;;;;;22.75;59.06;100655.34;5089930;28;20205;-61
2022/05/18 01:48:51;;;;;;;4.60;2.30;;;;;;;22.76;58.42;100671.41;5092297;28;20752;-61
2022/05/18 01:51:28;;;;;;;5.10;2.27;;;;;;;22.76;58.77;100667.69;5092066;28;20174;-61
2022/05/18 01:53:53;;;;;;;3.20;2.10;;;;;;;22.76;58.82;100671.41;5073970;28;20416;-61
2022/05/18 01:56:19;;;;;;;3.70;1.73;;;;;;;22.76;58.46;100668.53;5091225;28;20455;-61
2022/05/18 01:58:46;;;;;;;5.23;2.33;;;;;;;22.76;58.56;100670.56;5090077;28;20182;-61
2022/05/18 02:01:11;;;;;;;2.40;1.87;;;;;;;22.75;58.84;100669.75;5108119;28;20185;-61
2022/05/18 02:03:36;;;;;;;3.00;1.60;;;;;;;22.74;59.00;100665.22;5101635;28;20443;-61
2022/05/18 02:06:02;;;;;;;3.30;2.10;;;;;;;22.74;58.99;100670.97;5100257;28;20550;-61
2022/05/18 02:08:27;;;;;;;3.10;1.80;;;;;;;22.74;58.62;100673.88;5110400;28;20928;-61
2022/05/18 02:10:53;;;;;;;4.00;2.37;;;;;;;22.73;58.63;100672.19;5110882;28;20224;-61
2022/05/18 02:13:18;;;;;;;5.10;2.00;;;;;;;22.73;58.44;100672.19;5110580;28;20186;-61
2022/05/18 02:15:44;;;;;;;4.17;2.00;;;;;;;22.73;58.75;100669.31;5106498;28;20221;-61
2022/05/18 02:18:10;;;;;;;5.63;2.13;;;;;;;22.73;58.69;100668.50;5113848;27;20169;-61
2022/05/18 02:20:35;;;;;;;2.93;2.07;;;;;;;22.73;58.90;100666.44;5111180;28;20177;-61
2022/05/18 02:23:01;;;;;;;3.77;2.00;;;;;;;22.72;58.54;100663.97;5111640;28;20158;-61
2022/05/18 02:25:27;;;;;;;3.97;2.17;;;;;;;22.72;59.02;100667.66;5112004;28;20603;-61
2022/05/18 02:27:53;;;;;;;5.20;2.40;;;;;;;22.73;58.90;100674.25;5111586;28;20423;-61
2022/05/18 02:30:19;;;;;;;3.20;2.00;;;;;;;22.71;58.57;100674.66;5111870;28;20177;-61
2022/05/18 02:32:44;;;;;;;7.30;2.40;;;;;;;22.72;58.78;100676.28;5111504;28;20412;-61
2022/05/18 02:35:10;;;;;;;4.50;2.30;;;;;;;22.71;58.83;100674.66;5111079;28;20225;-61
2022/05/18 02:37:35;;;;;;;4.23;1.90;;;;;;;22.71;58.94;100670.94;5111286;28;20177;-61
2022/05/18 02:40:01;;;;;;;2.90;1.90;;;;;;;22.70;58.74;100667.25;5111482;28;20211;-61
2022/05/18 02:42:26;;;;;;;3.80;2.30;;;;;;;22.70;58.43;100672.16;5111744;28;20185;-61
2022/05/18 02:44:52;;;;;;;3.30;2.20;;;;;;;22.70;58.67;100672.16;5110993;28;20664;-61
2022/05/18 02:47:18;;;;;;;4.37;2.20;;;;;;;22.69;58.41;100679.16;5094818;28;20638;-61
2022/05/18 02:49:44;;;;;;;3.57;2.07;;;;;;;22.68;58.84;100672.56;5091382;28;20189;-61
2022/05/18 02:52:09;;;;;;;3.27;2.03;;;;;;;22.69;59.07;100680.00;5090541;28;20405;-61
2022/05/18 02:57:19;;;;;;;2.73;1.90;;;;;;;22.68;58.49;100681.19;5110963;28;20173;-61
2022/05/18 02:59:45;;;;;;;4.07;2.40;;;;;;;22.68;58.22;100678.31;5111461;28;20804;-61
2022/05/18 03:02:11;;;;;;;5.20;1.80;;;;;;;22.68;58.68;100678.31;5111061;28;20629;-61
2022/05/18 03:04:36;;;;;;;3.03;2.03;;;;;;;22.68;58.29;100681.19;5110844;28;20434;-61
2022/05/18 03:07:02;;;;;;;3.73;2.13;;;;;;;22.69;58.25;100693.56;5111709;28;20184;-61
2022/05/18 03:09:27;;;;;;;3.30;2.10;;;;;;;22.67;58.25;100691.06;5108997;28;20213;-61
2022/05/18 03:11:53;;;;;;;3.10;2.07;;;;;;;22.67;58.36;100685.31;5097763;28;20178;-61
2022/05/18 03:14:19;;;;;;;4.93;2.13;;;;;;;22.67;58.09;100685.31;5089010;28;20546;-61
2022/05/18 03:16:44;;;;;;;4.70;2.73;;;;;;;22.66;58.49;100695.19;5100640;28;20495;-61
2022/05/18 03:19:11;;;;;;;3.30;1.83;;;;;;;22.66;58.50;100695.19;5131671;27;20188;-61
2022/05/18 03:24:20;;;;;;;3.40;2.00;;;;;;;22.65;58.70;100705.03;5131665;28;20390;-61
2022/05/18 03:26:46;;;;;;;3.80;1.93;;;;;;;22.64;58.58;100700.53;5133415;27;20406;-61
2022/05/18 03:29:12;;;;;;;3.13;2.00;;;;;;;22.65;58.59;100701.31;5134133;27;20284;-61
2022/05/18 03:31:38;;;;;;;4.20;2.20;;;;;;;22.65;58.69;100709.97;5133783;27;20205;-61
2022/05/18 03:34:03;;;;;;;5.20;3.10;;;;;;;22.65;58.52;100713.69;5134082;27;20542;-61
2022/05/18 03:36:29;;;;;;;4.97;1.90;;;;;;;22.65;58.29;100712.84;5130560;27;20200;-61
2022/05/18 03:38:54;;;;;;;4.60;2.20;;;;;;;22.64;58.40;100722.72;5097693;28;20526;-61
2022/05/18 03:41:20;;;;;;;3.50;2.10;;;;;;;22.63;58.34;100721.88;5092807;28;20186;-61
2022/05/18 03:43:46;;;;;;;7.87;2.00;;;;;;;22.64;58.27;100726.41;5093590;28;20537;-61
2022/05/18 03:46:11;;;;;;;5.70;2.70;;;;;;;22.62;58.09;100728.84;5094037;28;20440;-61
2022/05/18 03:48:37;;;;;;;3.30;2.10;;;;;;;22.62;58.54;100734.59;5094186;28;20178;-61
2022/05/18 03:51:03;;;;;;;3.40;2.30;;;;;;;22.61;58.70;100729.25;5094278;28;20682;-61
2022/05/18 03:53:29;;;;;;;4.00;2.07;;;;;;;22.61;58.25;100732.97;5094456;28;20167;-61
2022/05/18 03:55:54;;;;;;;5.20;2.13;;;;;;;22.61;58.08;100735.00;5114141;28;20953;-61
2022/05/18 03:58:21;;;;;;;4.03;2.07;;;;;;;22.60;58.18;100733.34;5114185;28;20696;-61
2022/05/18 04:00:47;;;;;;;6.43;2.33;;;;;;;22.61;58.33;100735.00;5112959;28;20257;-61
2022/05/18 04:03:13;;;;;;;3.83;2.20;;;;;;;22.60;58.18;100739.94;5114247;28;20447;-61
2022/05/18 04:05:40;;;;;;;4.40;2.30;;;;;;;22.59;58.03;100729.66;5114694;28;20485;-61
2022/05/18 04:08:06;;;;;;;3.13;2.07;;;;;;;22.59;58.11;100741.19;5114658;28;20197;-61
2022/05/18 04:10:32;;;;;;;3.33;2.00;;;;;;;22.60;58.28;100736.22;5114235;28;20452;-61
2022/05/18 04:12:57;;;;;;;3.63;2.10;;;;;;;22.60;58.07;100751.47;5102751;28;20428;-61
2022/05/18 04:15:23;;;;;;;3.57;2.47;;;;;;;22.60;57.93;100747.75;5093710;28;20201;-61
2022/05/18 04:17:48;;;;;;;3.30;1.97;;;;;;;22.59;57.83;100746.94;5112361;27;20186;-61
2022/05/18 04:20:19;;;;;;;3.37;2.27;;;;;;;22.59;58.20;100751.84;5113309;28;20567;-61
2022/05/18 04:22:45;;;;;;;4.30;2.33;;;;;;;22.59;57.86;100760.50;5112965;28;20236;-61
2022/05/18 04:25:11;;;;;;;2.63;2.00;;;;;;;22.58;57.91;100753.91;5113729;28;20935;-61
2022/05/18 04:27:36;;;;;;;4.17;2.33;;;;;;;22.60;57.90;100756.38;5113834;27;20185;-60
2022/05/18 04:30:03;;;;;;;3.77;2.23;;;;;;;22.59;58.02;100758.44;5113587;28;20468;-61
2022/05/18 04:32:28;;;;;;;5.30;2.17;;;;;;;22.61;58.22;100756.00;5114096;28;20573;-61
2022/05/18 04:34:54;;;;;;;3.23;2.20;;;;;;;22.63;58.28;100759.28;5113254;28;20441;-61
2022/05/18 04:37:19;;;;;;;3.10;2.07;;;;;;;22.63;58.16;100764.22;5113481;28;20169;-61
2022/05/18 04:39:45;;;;;;;3.17;2.00;;;;;;;22.64;58.06;100763.84;5113539;28;20226;-61
2022/05/18 04:42:10;;;;;;;3.90;2.40;;;;;;;22.66;57.95;100772.06;5112297;28;20692;-61
2022/05/18 04:44:36;;;;;;;3.00;2.20;;;;;;;22.66;57.96;100775.78;5113726;28;20190;-61
2022/05/18 04:47:02;;;;;;;3.40;1.90;;;;;;;22.65;57.76;100782.75;5098955;27;20516;-61
2022/05/18 04:49:28;;;;;;;4.40;2.37;;;;;;;22.65;57.79;100785.63;5093216;28;20189;-61
2022/05/18 04:51:53;;;;;;;2.50;1.90;;;;;;;22.66;57.65;100787.28;5093371;28;20186;-61
2022/05/18 04:54:19;;;;;;;3.53;2.23;;;;;;;22.68;58.14;100784.81;5098975;28;20201;-61
2022/05/18 04:56:44;;;;;;;3.10;2.33;;;;;;;22.69;57.97;100791.41;5113231;28;20212;-61
2022/05/18 04:59:09;;;;;;;2.80;2.00;;;;;;;22.69;57.79;100803.78;5113054;28;20538;-61
2022/05/18 05:01:35;;;;;;;4.27;2.40;;;;;;;22.68;58.28;100798.41;5113216;28;20588;-61
2022/05/18 05:04:09;;;;;;;3.90;2.67;;;;;;;22.67;58.55;100809.09;5113474;28;20184;-61
2022/05/18 05:06:35;;;;;;;3.37;2.13;;;;;;;22.66;58.42;100810.31;5106150;28;20171;-61
2022/05/18 05:09:00;;;;;;;4.10;2.10;;;;;;;22.67;57.93;100808.28;5092185;28;20465;-61
2022/05/18 05:11:25;;;;;;;4.60;2.40;;;;;;;22.67;57.78;100808.28;5092687;28;20181;-61
2022/05/18 05:13:51;;;;;;;3.63;2.40;;;;;;;22.66;58.40;100816.06;5092818;28;20189;-61
2022/05/18 05:16:16;;;;;;;3.43;1.90;;;;;;;22.65;58.27;100814.41;5093283;27;20828;-61
2022/05/18 05:18:42;;;;;;;5.07;2.83;;;;;;;22.64;58.04;100809.91;5133096;27;20188;-61
2022/05/18 05:21:07;;;;;;;5.17;2.30;;;;;;;22.64;57.84;100809.06;5132496;27;20189;-61
2022/05/18 05:23:33;;;;;;;3.27;2.23;;;;;;;22.65;58.09;100810.69;5133140;27;20635;-61
2022/05/18 05:25:59;;;;;;;3.10;2.30;;;;;;;22.64;57.94;100815.66;5132684;27;20169;-61
2022/05/18 05:28:25;;;;;;;3.37;2.33;;;;;;;22.64;58.15;100809.06;5126626;27;20237;-61
2022/05/18 05:30:50;;;;;;;4.03;2.70;;;;;;;22.63;58.15;100813.16;5112598;28;20416;-61
2022/05/18 05:33:16;;;;;;;3.83;2.33;;;;;;;22.63;58.16;100816.84;5099163;28;20175;-61
2022/05/18 05:35:41;;;;;;;4.40;2.60;;;;;;;22.64;57.96;100811.94;5092091;28;20194;-61
2022/05/18 05:38:09;;;;;;;3.20;2.20;;;;;;;22.64;58.44;100818.53;5090187;28;20276;-61
2022/05/18 05:40:35;;;;;;;4.53;2.43;;;;;;;22.64;58.27;100815.66;5092408;28;20290;-61
2022/05/18 05:43:05;;;;;;;2.77;2.20;;;;;;;22.64;58.33;100818.53;5092226;28;20424;-61
2022/05/18 05:45:31;;;;;;;4.30;2.50;;;;;;;22.65;58.02;100816.47;5092943;28;20653;-61
2022/05/18 05:47:58;;;;;;;4.33;2.13;;;;;;;22.65;58.50;100816.47;5091957;28;20436;-61
2022/05/18 05:50:25;;;;;;;4.03;2.40;;;;;;;22.65;58.05;100825.09;5091501;28;20183;-61
2022/05/18 05:52:50;;;;;;;3.60;2.13;;;;;;;22.66;58.34;100824.72;5092127;28;20421;-61
2022/05/18 05:55:16;;;;;;;6.80;2.20;;;;;;;22.65;58.38;100831.69;5104653;28;20486;-61
2022/05/18 05:57:41;;;;;;;5.50;2.23;;;;;;;22.65;58.41;100825.94;5109946;28;20174;-61
2022/05/18 06:00:07;;;;;;;3.83;2.13;;;;;;;22.64;58.21;100821.41;5110357;28;20173;-61
2022/05/18 06:02:33;;;;;;;4.90;2.20;;;;;;;22.64;58.80;100829.19;5108670;28;20182;-61
2022/05/18 06:04:58;;;;;;;5.43;3.03;;;;;;;22.69;59.48;100825.97;5109775;28;20170;-61
2022/05/18 06:07:24;;;;;;;8.27;4.27;;;;;;;22.96;60.66;100836.91;5101023;28;20178;-61
2022/05/18 06:09:49;;;;;;;13.10;6.87;;;;;;;23.26;62.55;100828.13;5092930;28;20225;-61
2022/05/18 06:12:14;;;;;;;8.20;4.67;;;;;;;23.12;60.60;100828.81;5091753;28;20174;-62
2022/05/18 06:14:44;;;;;;;17.10;5.93;;;;;;;22.95;60.14;100835.25;5090612;28;20660;-61
2022/05/18 06:17:09;;;;;;;10.53;4.03;;;;;;;22.92;60.34;100829.47;5108285;27;20197;-60
2022/05/18 06:19:34;;;;;;;12.63;4.33;;;;;;;22.83;60.35;100826.91;5113672;27;20868;-62
2022/05/18 06:22:00;;;;;;;8.23;4.57;;;;;;;22.87;60.38;100824.09;5109900;28;20170;-62
2022/05/18 06:24:26;;;;;;;7.73;4.60;;;;;;;22.86;59.90;100820.38;5104472;28;20229;-61
2022/05/18 06:26:51;;;;;;;6.60;3.80;;;;;;;22.79;60.11;100825.25;5099129;28;20189;-61
2022/05/18 06:29:16;;;;;;;6.87;4.33;;;;;;;22.81;59.59;100823.63;5109019;28;20269;-61
2022/05/18 06:31:42;;;;;;;11.43;4.60;;;;;;;22.84;59.50;100834.34;5110848;28;20651;-61
2022/05/18 06:34:07;;;;;;;6.30;3.57;;;;;;;22.88;59.45;100837.25;5108072;28;20187;-61
2022/05/18 06:36:34;;;;;;;6.33;3.80;;;;;;;22.88;59.43;100840.13;5091080;28;20198;-61
2022/05/18 06:38:59;;;;;;;8.83;3.60;;;;;;;22.86;59.51;100834.75;5096157;28;20189;-61
2022/05/18 06:41:25;;;;;;;8.90;4.27;;;;;;;22.85;59.81;100830.25;5104044;28;20489;-61
2022/05/18 06:43:51;;;;;;;6.87;3.80;;;;;;;22.86;60.66;100829.00;5090998;28;20179;-61
2022/05/18 06:46:17;;;;;;;10.60;4.17;;;;;;;22.94;60.35;100836.50;5090918;28;20256;-62
2022/05/18 06:48:42;;;;;;;6.83;4.00;;;;;;;22.94;59.97;100829.91;5091112;28;20519;-61
2022/05/18 06:51:08;;;;;;;8.77;4.13;;;;;;;22.94;59.73;100830.75;5090486;28;20182;-61
2022/05/18 06:53:33;;;;;;;7.20;3.80;;;;;;;22.93;59.41;100831.13;5091337;28;20261;-61
2022/05/18 06:55:59;;;;;;;7.53;3.93;;;;;;;22.94;59.18;100833.63;5111394;28;20198;-62
2022/05/18 06:58:24;;;;;;;7.03;3.67;;;;;;;22.97;60.09;100827.03;5109711;28;20173;-61
2022/05/18 07:00:50;;;;;;;8.80;4.13;;;;;;;23.00;59.36;100832.03;5093372;28;20181;-61
2022/05/18 07:03:16;;;;;;;6.93;3.50;;;;;;;22.93;58.83;100826.19;5099395;28;20173;-61
2022/05/18 07:05:41;;;;;;;6.23;3.20;;;;;;;22.88;59.18;100829.44;5109313;28;20656;-61
2022/05/18 07:08:07;;;;;;;9.57;4.00;;;;;;;22.85;60.07;100820.75;5110870;28;20416;-61
2022/05/18 07:10:33;;;;;;;5.67;3.67;;;;;;;22.83;60.07;100826.09;5105882;28;20229;-61
2022/05/18 07:12:58;;;;;;;7.83;3.77;;;;;;;22.84;60.37;100830.63;5092213;28;20170;-61
2022/05/18 07:15:24;;;;;;;8.83;3.83;;;;;;;22.83;59.22;100829.78;5090030;28;20244;-61
2022/05/18 07:17:49;;;;;;;5.73;3.53;;;;;;;22.87;59.50;100826.97;5118578;27;20181;-61
2022/05/18 07:20:14;;;;;;;7.83;3.67;;;;;;;22.87;59.31;100830.66;5131718;27;20594;-61
2022/05/18 07:22:40;;;;;;;7.73;3.60;;;;;;;22.86;59.43;100829.00;5116685;27;20193;-61
2022/05/18 07:25:06;;;;;;;7.17;3.60;;;;;;;22.92;59.80;100833.16;5099283;28;20177;-61
2022/05/18 07:27:31;;;;;;;7.37;4.00;;;;;;;22.91;59.54;100833.56;5090164;28;20189;-60
2022/05/18 07:29:57;;;;;;;11.13;4.30;;;;;;;22.89;59.93;100836.03;5106301;28;20183;-60
2022/05/18 07:32:22;;;;;;;10.07;3.80;;;;;;;22.87;59.67;100835.59;5110521;28;20188;-60
2022/05/18 07:34:48;;;;;;;7.77;3.80;;;;;;;22.87;59.69;100841.38;5110788;28;20181;-60
2022/05/18 07:37:14;;;;;;;9.63;4.03;;;;;;;22.89;60.13;100836.03;5110826;28;20352;-60
2022/05/18 07:39:40;;;;;;;8.90;4.40;;;;;;;22.91;59.94;100840.16;5096619;28;20532;-60
2022/05/18 07:42:06;;;;;;;5.87;3.80;;;;;;;22.92;60.17;100838.13;5088937;28;20465;-60
2022/05/18 07:44:33;;;;;;;8.30;3.70;;;;;;;22.91;59.74;100845.06;5095683;28;20193;-60
2022/05/18 07:46:58;;;;;;;9.70;4.20;;;;;;;22.93;60.17;100848.41;5096341;28;20247;-60
2022/05/18 07:49:23;;;;;;;4.67;3.53;;;;;;;22.92;60.28;100856.22;5088764;28;20455;-60
2022/05/18 07:51:49;;;;;;;6.00;3.50;;;;;;;22.93;60.57;100843.47;5088075;28;20198;-60
2022/05/18 07:54:14;;;;;;;12.83;4.33;;;;;;;22.92;60.50;100847.56;5091698;28;20245;-60
2022/05/18 07:56:40;;;;;;;9.10;3.67;;;;;;;22.91;60.57;100842.19;5108147;28;20193;-60
2022/05/18 07:59:06;;;;;;;10.40;3.40;;;;;;;22.91;60.42;100845.06;5108327;28;20178;-60
2022/05/18 08:01:32;;;;;;;8.03;3.60;;;;;;;22.92;60.25;100844.69;5108835;28;20185;-60
2022/05/18 08:03:57;;;;;;;8.67;3.67;;;;;;;22.92;60.11;100849.63;5110262;28;20174;-60
2022/05/18 08:06:23;;;;;;;9.70;3.40;;;;;;;22.92;59.73;100846.75;5103926;28;20412;-60
2022/05/18 08:08:48;;;;;;;5.10;3.40;;;;;;;22.92;59.77;100838.94;5090197;28;20221;-61
2022/05/18 08:16:42;;;;;;;9.70;3.80;;;;;;;22.93;59.33;100834.81;5099059;28;20466;-61
2022/05/18 08:19:11;;;;;;;8.30;3.60;;;;;;;22.93;59.60;100843.47;5112366;28;20411;-61
2022/05/18 08:21:40;;;;;;;5.90;3.20;;;;;;;22.93;59.44;100843.47;5112479;28;20620;-61
2022/05/18 08:24:06;;;;;;;4.50;3.30;;;;;;;22.92;59.52;100841.81;5112278;28;20518;-61
2022/05/18 08:26:31;;;;;;;6.00;3.90;;;;;;;22.93;59.78;100837.69;5112373;28;20890;-61
2022/05/18 08:28:57;;;;;;;6.33;3.63;;;;;;;22.93;59.38;100843.47;5113538;28;20189;-61
2022/05/18 08:31:23;;;;;;;6.50;3.37;;;;;;;22.92;59.66;100841.81;5113840;28;20649;-61
2022/05/18 08:33:49;;;;;;;5.80;3.70;;;;;;;22.93;59.77;100843.47;5112833;28;20472;-61
2022/05/18 08:36:16;;;;;;;4.30;2.83;;;;;;;22.94;60.14;100844.28;5112280;28;20702;-61
2022/05/18 08:38:42;;;;;;;5.20;3.30;;;;;;;22.92;59.75;100836.03;5111806;28;20192;-61
2022/05/18 08:41:12;;;;;;;6.77;3.63;;;;;;;22.92;59.92;100841.81;5113671;28;20914;-61
2022/05/18 08:43:41;;;;;;;5.07;3.23;;;;;;;22.94;59.99;100842.25;5112255;28;20174;-61
2022/05/18 08:46:11;;;;;;;4.77;3.00;;;;;;;22.94;59.77;100842.25;5095309;28;20455;-62
2022/05/18 08:49:02;;;;;;;7.17;3.50;;;;;;;22.95;59.85;100831.53;5111984;28;20413;-61
2022/05/18 08:51:35;;;;;;;5.30;3.60;;;;;;;22.95;60.18;100838.16;5112373;28;20416;-61
2022/05/18 08:54:16;;;;;;;7.83;3.63;;;;;;;22.94;59.81;100832.78;5112266;28;20420;-61
2022/05/18 08:56:42;;;;;;;6.53;3.33;;;;;;;22.94;60.07;100833.63;5112908;28;20516;-61
2022/05/18 08:59:18;;;;;;;7.33;3.50;;;;;;;22.95;59.67;100831.53;5106518;28;20420;-61
2022/05/18 09:01:46;;;;;;;10.50;3.87;;;;;;;22.96;59.67;100836.06;5091305;28;20268;-61
2022/05/18 09:04:52;;;;;;;6.67;3.13;;;;;;;22.95;59.95;100826.63;5091738;28;20408;-61
2022/05/18 09:07:19;;;;;;;6.13;3.50;;;;;;;22.96;60.10;100839.78;5073872;28;20436;-61
2022/05/18 09:12:37;;;;;;;5.43;3.17;;;;;;;22.95;59.85;100828.66;5090163;28;20404;-61
2022/05/18 09:15:07;;;;;;;5.70;3.30;;;;;;;22.96;60.01;100836.06;5092140;28;20444;-61
2022/05/18 09:17:47;;;;;;;5.50;3.50;;;;;;;22.96;60.02;100831.16;5114947;27;20781;-61
2022/05/18 09:20:29;;;;;;;5.60;3.03;;;;;;;22.95;59.86;100826.63;5132226;27;20426;-61
2022/05/18 09:23:19;;;;;;;7.97;3.50;;;;;;;22.97;60.01;100817.59;5100301;28;20497;-61
2022/05/18 09:26:01;;;;;;;6.27;3.07;;;;;;;22.97;59.80;100832.00;5092678;28;20411;-61
2022/05/18 09:28:53;;;;;;;4.83;2.83;;;;;;;22.97;59.62;100823.34;5093438;28;20519;-61
2022/05/18 09:32:00;;;;;;;6.63;3.17;;;;;;;22.98;60.00;100825.00;5091708;28;20935;-61
2022/05/18 09:35:03;;;;;;;7.20;3.10;;;;;;;22.98;59.53;100825.81;5091696;28;20427;-61
2022/05/18 09:37:40;;;;;;;5.03;3.00;;;;;;;22.99;60.15;100818.00;5090950;28;20424;-61
2022/05/18 09:40:23;;;;;;;5.20;3.27;;;;;;;23.00;59.75;100819.66;5088595;28;20463;-61
2022/05/18 09:42:53;;;;;;;6.10;3.00;;;;;;;23.00;60.02;100814.75;5089361;28;20428;-61
2022/05/18 09:45:20;;;;;;;6.07;3.10;;;;;;;23.00;59.54;100808.97;5072151;28;20435;-61
2022/05/18 09:47:54;;;;;;;5.33;3.30;;;;;;;23.02;59.57;100800.75;5078934;28;20925;-61
2022/05/18 09:50:19;;;;;;;5.50;3.40;;;;;;;23.04;59.28;100801.19;5110954;28;20449;-61
2022/05/18 09:52:45;;;;;;;5.17;3.47;;;;;;;23.01;59.71;100807.75;5109650;28;20540;-61
2022/05/18 09:55:12;;;;;;;6.30;3.63;;;;;;;23.02;59.40;100800.75;5111842;28;20173;-61
2022/05/18 09:57:56;;;;;;;7.80;3.00;;;;;;;23.02;59.19;100794.19;5093783;28;20252;-61
2022/05/18 10:00:23;;;;;;;4.70;3.07;;;;;;;23.00;59.69;100797.47;5109734;28;20396;-61
2022/05/18 10:08:31;;;;;;;5.63;3.47;;;;;;;23.01;59.17;100799.09;5110642;28;20476;-61
2022/05/18 10:11:03;;;;;;;5.87;3.70;;;;;;;23.01;59.01;100793.34;5111172;28;20824;-61
2022/05/18 10:13:34;;;;;;;7.43;3.10;;;;;;;23.01;59.22;100796.22;5105334;28;20417;-61
2022/05/18 10:16:20;;;;;;;6.40;2.90;;;;;;;23.00;59.16;100791.69;5100229;28;20537;-61
2022/05/18 10:18:51;;;;;;;5.67;3.10;;;;;;;23.02;58.93;100789.22;5090420;28;20467;-61
2022/05/18 10:21:18;;;;;;;6.33;3.07;;;;;;;23.03;58.94;100788.00;5091121;28;20461;-61
2022/05/18 10:23:57;;;;;;;3.60;2.70;;;;;;;23.01;59.14;100780.97;5092101;28;20891;-61
2022/05/18 10:26:28;;;;;;;8.63;3.50;;;;;;;23.02;58.79;100783.47;5092511;28;20408;-61
2022/05/18 10:29:06;;;;;;;8.30;3.60;;;;;;;23.02;58.74;100780.59;5090203;28;20423;-61
2022/05/18 10:31:40;;;;;;;5.50;3.47;;;;;;;23.01;58.68;100781.81;5091341;28;20971;-61
2022/05/18 10:34:14;;;;;;;6.73;3.20;;;;;;;23.03;58.66;100773.59;5091312;28;20438;-61
2022/05/18 10:36:46;;;;;;;5.23;3.00;;;;;;;23.02;58.64;100774.03;5089716;28;20573;-61
2022/05/18 10:39:11;;;;;;;6.13;2.80;;;;;;;23.03;58.38;100775.66;5091297;28;20412;-61
2022/05/18 10:41:45;;;;;;;5.00;3.03;;;;;;;23.03;58.41;100770.72;5110364;28;20996;-61
2022/05/18 10:44:21;;;;;;;5.60;3.00;;;;;;;23.03;58.23;100767.84;5110724;28;20189;-61
2022/05/18 10:46:48;;;;;;;4.33;3.13;;;;;;;23.02;58.38;100769.06;5097800;28;20420;-61
2022/05/18 10:49:33;;;;;;;3.80;2.43;;;;;;;23.02;57.74;100766.19;5090284;28;20429;-61
2022/05/18 10:52:15;;;;;;;10.43;3.07;;;;;;;23.00;58.42;100757.13;5089829;28;20497;-61
2022/05/18 10:54:57;;;;;;;3.90;3.00;;;;;;;23.02;57.97;100753.88;5101148;28;20783;-61
2022/05/18 10:57:39;;;;;;;4.50;2.90;;;;;;;23.04;57.54;100754.28;5111774;28;20462;-61
2022/05/18 11:00:05;;;;;;;4.63;3.07;;;;;;;23.02;57.56;100751.78;5112089;28;20925;-61
2022/05/18 11:02:33;;;;;;;3.90;2.77;;;;;;;23.02;57.74;100742.34;5111797;28;20416;-61
2022/05/18 11:05:08;;;;;;;6.93;3.00;;;;;;;23.02;57.34;100737.38;5111564;28;20174;-61
2022/05/18 11:07:34;;;;;;;6.00;3.50;;;;;;;23.03;57.36;100739.03;5110167;28;20431;-61
2022/05/18 11:09:59;;;;;;;6.50;3.17;;;;;;;23.04;57.64;100734.94;5098059;28;20518;-61
2022/05/18 11:12:28;;;;;;;4.93;2.60;;;;;;;23.04;57.99;100732.06;5091227;28;20178;-61
2022/05/18 11:15:08;;;;;;;4.97;2.67;;;;;;;23.03;57.52;100724.63;5091184;28;20174;-61
2022/05/18 11:17:42;;;;;;;5.30;2.67;;;;;;;23.06;57.52;100720.97;5115548;28;20446;-61
2022/05/18 11:20:23;;;;;;;5.40;3.10;;;;;;;23.04;57.91;100717.69;5132606;27;20557;-61
2022/05/18 11:23:17;;;;;;;5.07;2.90;;;;;;;23.05;57.65;100718.47;5130620;28;20407;-61
2022/05/18 11:26:05;;;;;;;4.27;2.70;;;;;;;23.04;57.88;100714.78;5130400;28;20410;-61
2022/05/18 11:28:49;;;;;;;5.40;3.00;;;;;;;23.06;58.10;100715.22;5132290;27;20909;-61
2022/05/18 11:31:21;;;;;;;5.67;3.00;;;;;;;23.05;57.44;100716.44;5122252;27;20407;-61
2022/05/18 11:34:05;;;;;;;4.30;2.80;;;;;;;23.05;57.95;100707.81;5089665;28;20549;-61
2022/05/18 11:36:38;;;;;;;4.60;3.00;;;;;;;23.06;57.80;100711.47;5090218;28;20467;-61
2022/05/18 11:39:05;;;;;;;6.10;2.93;;;;;;;23.08;57.76;100704.09;5091187;28;20458;-61
2022/05/18 11:41:38;;;;;;;7.03;3.50;;;;;;;23.07;57.87;100704.50;5092006;28;20407;-61
2022/05/18 11:44:31;;;;;;;4.23;2.90;;;;;;;23.07;57.68;100705.31;5088396;28;20496;-61
2022/05/18 11:47:24;;;;;;;4.27;3.00;;;;;;;23.10;57.82;100695.06;5090027;28;20424;-61
2022/05/18 11:49:57;;;;;;;3.43;2.93;;;;;;;23.09;57.55;100696.28;5092860;28;20419;-61